Time;durP1;ratioP1;P1;durP2;ratioP2;P2;SDS_P1;SDS_P2;PMS_P1;PMS_P2;Temp;Humidity;BMP_temperature;BMP_pressure;BME280_temperature;BME280_humidity;BME280_pressure;Samples;Min_cycle;Max_cycle;Signal;HPM_P1;HPM_P2
2021/07/12 00:02:17;;;;;;;;;8.50;8.50;;;;;20.50;58.30;100693.94;5073973;27;45371;-64
2021/07/12 00:04:43;;;;;;;;;6.75;6.50;;;;;20.46;58.23;100695.91;5074184;28;45486;-64
2021/07/12 00:07:08;;;;;;;;;7.50;7.50;;;;;20.43;58.56;100680.16;5074693;27;46062;-64
2021/07/12 00:09:33;;;;;;;;;9.50;9.50;;;;;20.41;58.66;100681.22;5073226;27;46464;-64
2021/07/12 00:11:59;;;;;;;;;10.00;7.75;;;;;20.39;58.55;100677.78;5073630;27;47350;-64
2021/07/12 00:14:24;;;;;;;;;9.75;9.75;;;;;20.37;58.77;100668.09;5076958;27;45582;-64
2021/07/12 00:16:49;;;;;;;;;10.00;10.00;;;;;20.34;58.86;100664.78;5077088;28;45366;-64
2021/07/12 00:19:15;;;;;;;;;7.75;6.00;;;;;20.33;59.14;100652.41;5077569;27;46221;-64
2021/07/12 00:21:41;;;;;;;;;9.00;9.00;;;;;20.29;59.09;100648.25;5076230;27;45585;-64
2021/07/12 00:24:06;;;;;;;;;11.00;11.00;;;;;20.26;59.16;100640.44;5076785;27;45530;-65
2021/07/12 00:26:32;;;;;;;;;10.50;8.50;;;;;20.24;58.89;100642.38;5076661;28;45444;-65
2021/07/12 00:28:57;;;;;;;;;8.00;7.00;;;;;20.22;59.44;100636.31;5076728;27;45428;-65
2021/07/12 00:31:23;;;;;;;;;6.50;6.50;;;;;20.20;59.42;100633.72;5077828;28;45326;-64
2021/07/12 00:33:48;;;;;;;;;7.50;7.00;;;;;20.18;59.56;100640.09;5073976;27;45561;-65
2021/07/12 00:36:14;;;;;;;;;6.75;6.75;;;;;20.15;59.28;100638.47;5071478;28;45385;-64
2021/07/12 00:38:39;;;;;;;;;8.75;8.50;;;;;20.13;59.41;100653.66;5076275;27;46321;-65
2021/07/12 00:41:05;;;;;;;;;11.25;8.25;;;;;20.11;59.72;100650.25;5076360;27;45448;-64
2021/07/12 00:43:31;;;;;;;;;5.75;5.50;;;;;20.08;59.71;100651.28;5077184;28;45373;-65
2021/07/12 00:45:56;;;;;;;;;7.75;7.75;;;;;20.07;59.87;100667.31;5077188;27;45370;-64
2021/07/12 00:48:22;;;;;;;;;6.00;6.00;;;;;20.04;60.18;100671.00;5075802;28;46729;-64
2021/07/12 00:50:47;;;;;;;;;6.25;5.00;;;;;20.02;60.11;100677.38;5076213;27;45634;-65
2021/07/12 00:53:14;;;;;;;;;7.00;6.00;;;;;20.00;59.93;100684.56;5076236;27;45590;-64
2021/07/12 00:55:46;;;;;;;;;7.25;7.25;;;;;19.99;60.16;100688.19;5076659;28;45284;-64
2021/07/12 00:58:14;;;;;;;;;8.25;8.25;;;;;19.98;59.99;100689.16;5076612;27;46054;-64
2021/07/12 01:00:42;;;;;;;;;6.50;6.50;;;;;19.96;60.23;100685.72;5076189;27;45761;-65
2021/07/12 01:03:10;;;;;;;;;5.50;5.50;;;;;19.93;60.77;100687.63;5076348;27;45540;-65
2021/07/12 01:05:37;;;;;;;;;5.00;5.00;;;;;19.92;60.94;100677.91;5076436;28;45312;-65
2021/07/12 01:08:03;;;;;;;;;5.50;5.50;;;;;19.90;60.83;100663.91;5076374;28;46135;-64
2021/07/12 01:10:29;;;;;;;;;9.00;7.00;;;;;19.90;60.91;100661.25;5076886;28;45307;-64
2021/07/12 01:13:01;;;;;;;;;7.00;7.00;;;;;19.89;60.78;100664.84;5076441;28;45507;-64
2021/07/12 01:15:35;;;;;;;;;9.33;6.00;;;;;19.90;60.90;100663.03;5076183;27;45496;-64
2021/07/12 01:18:29;;;;;;;;;5.00;5.00;;;;;19.91;60.76;100656.78;5076188;27;45406;-65
2021/07/12 01:21:02;;;;;;;;;7.00;7.00;;;;;19.91;61.04;100649.66;5066911;28;45521;-64
2021/07/12 01:23:33;;;;;;;;;5.00;5.00;;;;;19.92;61.07;100638.06;5076792;28;45323;-64
2021/07/12 01:26:13;;;;;;;;;3.00;3.00;;;;;19.93;60.92;100630.97;5060173;28;45459;-65
2021/07/12 01:28:41;;;;;;;;;5.00;5.00;;;;;19.93;60.66;100623.84;5076601;28;45481;-64
2021/07/12 01:31:31;;;;;;;;;5.67;5.67;;;;;19.95;60.87;100607.84;5076612;27;45434;-64
2021/07/12 01:34:21;;;;;;;;;6.00;6.00;;;;;19.96;60.60;100601.56;5076731;28;45460;-64
2021/07/12 01:37:34;;;;;;;;;4.67;4.67;;;;;19.98;60.67;100590.84;5075808;28;45624;-64
2021/07/12 01:40:07;;;;;;;;;7.50;7.50;;;;;19.98;60.88;100583.72;5033364;28;46338;-64
2021/07/12 01:42:41;;;;;;;;;8.33;6.67;;;;;20.00;60.98;100586.25;5033250;28;45413;-64
2021/07/12 01:45:11;;;;;;;;;7.00;5.33;;;;;19.99;60.58;100582.75;5033495;28;45492;-65
2021/07/12 01:47:48;;;;;;;;;6.25;5.00;;;;;20.01;60.63;100574.72;5033505;28;45707;-65
2021/07/12 01:50:20;;;;;;;;;6.50;6.50;;;;;20.02;60.94;100579.94;5016265;28;47327;-64
2021/07/12 01:52:48;;;;;;;;;6.75;6.75;;;;;20.04;60.85;100574.50;5033234;28;45414;-64
2021/07/12 01:55:40;;;;;;;;;6.25;5.25;;;;;20.07;60.38;100574.31;5033299;28;45346;-65
2021/07/12 01:58:12;;;;;;;;;6.00;5.00;;;;;20.09;60.70;100569.75;5033264;28;45384;-65
2021/07/12 02:00:43;;;;;;;;;4.25;4.00;;;;;20.11;60.72;100578.47;5032696;28;46038;-65
2021/07/12 02:03:09;;;;;;;;;5.50;5.50;;;;;20.12;60.98;100581.06;5032205;28;45505;-64
2021/07/12 02:05:37;;;;;;;;;7.00;5.50;;;;;20.12;60.56;100583.72;5032089;28;45627;-64
2021/07/12 02:08:05;;;;;;;;;5.00;5.00;;;;;20.11;60.76;100589.97;5032927;28;45557;-64
2021/07/12 02:10:32;;;;;;;;;4.67;4.67;;;;;20.13;60.33;100593.38;5032660;28;45495;-64
2021/07/12 02:13:00;;;;;;;;;5.00;5.00;;;;;20.12;60.64;100599.66;5032384;28;45391;-65
2021/07/12 02:15:26;;;;;;;;;6.00;6.00;;;;;20.13;60.33;100597.84;5055014;28;45419;-65
2021/07/12 02:17:54;;;;;;;;;6.75;6.75;;;;;20.12;60.34;100596.16;5074770;27;45553;-65
2021/07/12 02:20:23;;;;;;;;;6.00;6.00;;;;;20.13;60.52;100598.69;5074816;27;45405;-64
2021/07/12 02:22:51;;;;;;;;;8.50;7.75;;;;;20.14;60.67;100597.78;5075073;27;45432;-65
2021/07/12 02:25:18;;;;;;;;;6.25;5.00;;;;;20.16;60.60;100608.28;5075451;27;45379;-65
2021/07/12 02:27:44;;;;;;;;;7.00;6.50;;;;;20.15;60.36;100609.25;5074976;28;45370;-64
2021/07/12 02:30:10;;;;;;;;;5.75;5.75;;;;;20.12;60.52;100607.63;5074540;28;45322;-64
2021/07/12 02:32:37;;;;;;;;;6.25;5.25;;;;;20.15;60.14;100617.22;5074641;27;45508;-64
2021/07/12 02:35:06;;;;;;;;;6.00;5.00;;;;;20.15;60.82;100610.09;5074703;27;45886;-64
2021/07/12 02:37:36;;;;;;;;;6.50;6.50;;;;;20.15;60.26;100610.09;5074401;28;45568;-64
2021/07/12 02:40:02;;;;;;;;;6.67;5.67;;;;;20.17;60.50;100601.19;5075338;27;46352;-64
2021/07/12 02:42:28;;;;;;;;;6.00;6.00;;;;;20.18;60.64;100595.75;5074801;28;45468;-64
2021/07/12 02:44:54;;;;;;;;;5.00;5.00;;;;;20.21;60.21;100587.59;5074705;28;45477;-64
2021/07/12 02:47:19;;;;;;;;;4.00;4.00;;;;;20.23;60.24;100591.00;5075225;28;45457;-64
2021/07/12 02:49:45;;;;;;;;;7.50;5.25;;;;;20.23;60.82;100588.34;5074023;28;46310;-66
2021/07/12 02:52:23;;;;;;;;;7.25;7.25;;;;;20.23;60.83;100572.41;5075201;27;45519;-65
2021/07/12 02:54:51;;;;;;;;;8.25;7.00;;;;;20.23;60.88;100567.09;5074297;27;45338;-65
2021/07/12 02:57:17;;;;;;;;;7.00;7.00;;;;;20.21;61.42;100565.47;5074661;28;45628;-64
2021/07/12 02:59:42;;;;;;;;;6.25;6.25;;;;;20.19;61.68;100554.97;5073781;27;46084;-64
2021/07/12 03:02:07;;;;;;;;;10.50;8.50;;;;;20.19;61.76;100540.78;5074317;28;45367;-65
2021/07/12 03:04:33;;;;;;;;;7.25;5.50;;;;;20.14;61.86;100536.63;5073908;28;45350;-65
2021/07/12 03:07:07;;;;;;;;;8.00;7.00;;;;;20.08;62.09;100534.34;5074768;27;45454;-64
2021/07/12 03:09:40;;;;;;;;;7.75;6.75;;;;;19.99;61.88;100529.63;5074073;27;45543;-64
2021/07/12 03:12:13;;;;;;;;;5.25;4.75;;;;;19.92;62.85;100536.28;5073702;27;45378;-64
2021/07/12 03:14:47;;;;;;;;;6.00;6.00;;;;;19.83;62.88;100531.53;5073575;27;45189;-64
2021/07/12 03:17:16;;;;;;;;;7.75;6.00;;;;;19.76;63.33;100530.19;5073491;28;45305;-65
2021/07/12 03:19:45;;;;;;;;;6.00;5.00;;;;;19.69;63.37;100527.09;5074248;28;46145;-64
2021/07/12 03:22:12;;;;;;;;;5.00;4.25;;;;;19.65;63.51;100517.56;5074100;27;45652;-65
2021/07/12 03:24:40;;;;;;;;;7.25;7.25;;;;;19.65;63.09;100520.22;5074084;27;45448;-65
2021/07/12 03:27:10;;;;;;;;;8.25;7.25;;;;;19.65;63.48;100522.88;5073781;27;45562;-66
2021/07/12 03:29:37;;;;;;;;;6.00;4.67;;;;;19.65;63.22;100499.81;5073890;27;46121;-67
2021/07/12 03:32:04;;;;;;;;;8.33;5.00;;;;;19.68;63.27;100502.31;5073894;27;45378;-66
2021/07/12 03:34:31;;;;;;;;;5.67;5.67;;;;;19.69;63.48;100495.22;5074758;28;45371;-65
2021/07/12 03:36:59;;;;;;;;;7.00;6.00;;;;;19.69;63.44;100482.78;5075065;27;45520;-64
2021/07/12 03:39:24;;;;;;;;;5.00;4.00;;;;;19.68;62.95;100489.03;5074345;27;45343;-65
2021/07/12 03:41:50;;;;;;;;;3.75;3.75;;;;;19.67;62.48;100489.13;5073647;28;45432;-65
2021/07/12 03:44:17;;;;;;;;;8.00;5.00;;;;;19.66;63.06;100482.97;5074195;27;45279;-65
2021/07/12 03:46:43;;;;;;;;;4.75;3.75;;;;;19.62;62.73;100470.81;5071641;28;45503;-64
2021/07/12 03:49:14;;;;;;;;;4.00;4.00;;;;;19.61;62.88;100486.84;5077803;27;46127;-64
2021/07/12 03:51:41;;;;;;;;;4.00;4.00;;;;;19.58;62.59;100500.31;5077524;27;45657;-64
2021/07/12 03:54:07;;;;;;;;;3.75;3.75;;;;;19.57;62.67;100494.16;5077490;27;45444;-65
2021/07/12 03:56:33;;;;;;;;;3.67;3.67;;;;;19.60;62.71;100506.38;5077302;27;45437;-65
2021/07/12 03:58:59;;;;;;;;;4.33;4.00;;;;;19.61;62.60;100514.22;5077404;27;45590;-65
2021/07/12 04:01:24;;;;;;;;;5.67;4.67;;;;;19.63;62.71;100506.19;5078205;28;45500;-65
2021/07/12 04:03:51;;;;;;;;;4.67;4.67;;;;;19.66;63.05;100501.56;5077331;27;45538;-65
2021/07/12 04:06:17;;;;;;;;;4.00;4.00;;;;;19.70;62.46;100500.41;5077563;27;45393;-65
2021/07/12 04:08:43;;;;;;;;;4.00;4.00;;;;;19.77;62.75;100505.38;5075424;28;47551;-65
2021/07/12 04:11:10;;;;;;;;;15.25;15.25;;;;;19.81;63.15;100502.41;5076440;28;45416;-65
2021/07/12 04:13:36;;;;;;;;;18.25;17.50;;;;;19.86;63.21;100502.97;5076241;28;45401;-65
2021/07/12 04:16:02;;;;;;;;;48.00;41.00;;;;;19.90;63.39;100504.50;5076894;27;45390;-65
2021/07/12 04:18:27;;;;;;;;;14.50;14.50;;;;;19.94;62.75;100515.78;5076676;27;49024;-65
2021/07/12 04:20:52;;;;;;;;;5.75;5.75;;;;;19.98;62.49;100519.13;5076396;28;45465;-66
2021/07/12 04:23:18;;;;;;;;;10.25;10.25;;;;;20.01;62.48;100514.44;5076958;27;45378;-64
2021/07/12 04:25:43;;;;;;;;;6.75;5.75;;;;;20.05;62.47;100512.47;5076473;28;45371;-64
2021/07/12 04:28:09;;;;;;;;;5.00;4.00;;;;;20.09;62.78;100513.94;5076788;27;46993;-64
2021/07/12 04:30:34;;;;;;;;;4.00;3.00;;;;;20.12;62.27;100519.09;5075703;27;45479;-64
2021/07/12 04:33:00;;;;;;;;;4.00;4.00;;;;;20.14;62.47;100520.69;5076165;27;45542;-65
2021/07/12 04:35:26;;;;;;;;;3.00;3.00;;;;;20.18;62.23;100518.69;5076659;28;45433;-64
2021/07/12 04:37:51;;;;;;;;;7.00;5.00;;;;;20.20;62.67;100526.56;5076669;28;45565;-64
2021/07/12 04:40:16;;;;;;;;;7.33;6.33;;;;;20.20;62.52;100518.59;5077064;27;45400;-65
2021/07/12 04:42:42;;;;;;;;;5.33;5.33;;;;;20.20;62.42;100507.97;5076348;27;48855;-64
2021/07/12 04:45:09;;;;;;;;;7.25;7.00;;;;;20.21;63.15;100513.16;5075533;27;47847;-65
2021/07/12 04:47:34;;;;;;;;;7.00;6.75;;;;;20.21;63.17;100513.16;5075844;28;46637;-63
2021/07/12 04:50:00;;;;;;;;;9.25;8.75;;;;;20.21;63.44;100515.81;5075670;27;45564;-65
2021/07/12 04:52:25;;;;;;;;;9.50;7.75;;;;;20.22;63.13;100520.19;5074558;28;45457;-63
2021/07/12 04:54:51;;;;;;;;;7.50;6.50;;;;;20.22;62.84;100519.34;5062214;28;45377;-64
2021/07/12 04:57:16;;;;;;;;;7.25;7.25;;;;;20.23;63.15;100511.25;5063388;28;48221;-64
2021/07/12 04:59:42;;;;;;;;;7.00;5.00;;;;;20.24;63.23;100507.66;5064971;28;45438;-64
2021/07/12 05:02:10;;;;;;;;;8.25;8.25;;;;;20.26;63.09;100502.25;5068923;28;45495;-64
2021/07/12 05:04:36;;;;;;;;;8.00;6.75;;;;;20.26;63.14;100492.47;5075870;28;45582;-63
2021/07/12 05:07:03;;;;;;;;;5.50;5.50;;;;;20.25;62.69;100481.94;5075977;27;45503;-63
2021/07/12 05:09:28;;;;;;;;;8.00;8.00;;;;;20.20;62.82;100482.22;5069749;28;45383;-63
2021/07/12 05:11:54;;;;;;;;;5.00;5.00;;;;;20.18;62.88;100481.47;5075196;27;45465;-64
2021/07/12 05:14:19;;;;;;;;;7.33;6.33;;;;;20.19;62.39;100484.97;5074539;27;45440;-63
2021/07/12 05:16:45;;;;;;;;;13.25;10.75;;;;;20.16;62.54;100480.72;5074790;28;46393;-65
2021/07/12 05:19:13;;;;;;;;;6.50;6.50;;;;;20.18;62.67;100477.97;5076184;27;45357;-63
2021/07/12 05:21:39;;;;;;;;;13.00;10.75;;;;;20.20;62.73;100468.94;5073865;27;45429;-63
2021/07/12 05:24:05;;;;;;;;;13.25;11.50;;;;;20.22;62.66;100471.50;5075520;28;45289;-64
2021/07/12 05:26:30;;;;;;;;;5.00;5.00;;;;;20.23;62.19;100473.22;5074736;27;46955;-63
2021/07/12 05:28:56;;;;;;;;;5.00;2.00;;;;;20.20;62.00;100466.28;5074871;27;45483;-64
2021/07/12 05:31:21;;;;;;;;;6.50;6.50;;;;;20.18;62.15;100464.69;5076059;27;45429;-65
2021/07/12 05:33:46;;;;;;;;;7.75;5.75;;;;;20.17;62.25;100460.34;5071389;27;45543;-65
2021/07/12 05:36:12;;;;;;;;;10.33;6.67;;;;;20.14;62.17;100462.22;5065687;27;46048;-66
2021/07/12 05:38:37;;;;;;;;;12.00;8.25;;;;;20.13;62.17;100462.31;5065134;28;45606;-66
2021/07/12 05:41:03;;;;;;;;;5.75;5.75;;;;;20.12;61.90;100465.94;5066533;28;45544;-65
2021/07/12 05:43:28;;;;;;;;;10.00;8.00;;;;;20.10;62.08;100471.34;5063542;28;45390;-66
2021/07/12 05:45:53;;;;;;;;;6.00;5.75;;;;;20.11;61.76;100472.19;5065981;27;45510;-65
2021/07/12 05:48:19;;;;;;;;;6.00;4.33;;;;;20.13;61.45;100480.91;5070320;28;45566;-65
2021/07/12 05:50:44;;;;;;;;;4.67;4.67;;;;;20.14;61.68;100479.94;5075329;27;45626;-65
2021/07/12 05:53:10;;;;;;;;;7.25;5.50;;;;;20.14;61.24;100482.63;5074588;27;45337;-64
2021/07/12 05:55:35;;;;;;;;;5.75;5.00;;;;;20.14;61.71;100479.94;5071569;28;45587;-65
2021/07/12 05:58:00;;;;;;;;;4.33;4.33;;;;;20.15;61.30;100485.19;5066896;27;45386;-67
2021/07/12 06:00:26;;;;;;;;;6.00;6.00;;;;;20.13;61.18;100473.78;5067171;27;45458;-65
2021/07/12 06:02:51;;;;;;;;;5.33;5.33;;;;;20.12;61.71;100471.25;5063167;27;45475;-64
2021/07/12 06:05:17;;;;;;;;;8.33;6.00;;;;;20.10;61.49;100471.34;5066798;28;47293;-64
2021/07/12 06:07:44;;;;;;;;;5.67;5.67;;;;;20.04;61.59;100455.78;5074871;27;45591;-65
2021/07/12 06:10:10;;;;;;;;;8.25;7.75;;;;;20.04;61.42;100460.25;5065432;27;45500;-65
2021/07/12 06:12:36;;;;;;;;;5.00;5.00;;;;;20.05;61.56;100451.34;5066840;28;45453;-64
2021/07/12 06:15:03;;;;;;;;;6.00;5.33;;;;;20.04;61.70;100454.94;5061188;28;47258;-65
2021/07/12 06:17:28;;;;;;;;;6.50;6.25;;;;;20.04;61.88;100462.91;5068074;28;45511;-64
2021/07/12 06:19:54;;;;;;;;;9.00;6.33;;;;;20.04;61.78;100460.25;5068011;27;45468;-62
2021/07/12 06:22:19;;;;;;;;;6.00;6.00;;;;;20.04;61.90;100460.25;5069503;27;45607;-64
2021/07/12 06:24:44;;;;;;;;;4.67;4.00;;;;;20.03;62.11;100450.59;5064379;27;45437;-64
2021/07/12 06:27:10;;;;;;;;;7.00;5.33;;;;;19.99;62.06;100459.69;5066145;27;45441;-64
2021/07/12 06:29:35;;;;;;;;;9.00;7.75;;;;;19.96;62.21;100457.25;5063667;27;45566;-65
2021/07/12 06:32:01;;;;;;;;;7.50;6.75;;;;;19.93;62.55;100461.78;5063191;28;45344;-64
2021/07/12 06:34:26;;;;;;;;;6.25;5.25;;;;;19.89;62.66;100449.66;5065007;28;45903;-64
2021/07/12 06:36:52;;;;;;;;;7.50;6.25;;;;;19.85;63.31;100440.16;5062500;28;45452;-65
2021/07/12 06:39:17;;;;;;;;;5.00;5.00;;;;;19.84;63.17;100430.50;5070055;27;45237;-65
2021/07/12 06:41:43;;;;;;;;;7.50;6.75;;;;;19.81;63.51;100435.19;5072435;28;45895;-64
2021/07/12 06:44:08;;;;;;;;;8.00;7.25;;;;;19.78;63.70;100428.22;5064281;28;46339;-65
2021/07/12 06:46:34;;;;;;;;;8.75;7.00;;;;;19.77;63.22;100425.69;5067366;28;45377;-66
2021/07/12 06:48:59;;;;;;;;;9.50;7.75;;;;;19.78;63.96;100411.44;5069446;28;45738;-65
2021/07/12 06:51:25;;;;;;;;;11.25;7.50;;;;;19.80;64.15;100406.88;5068045;27;45393;-64
2021/07/12 06:53:50;;;;;;;;;6.00;5.75;;;;;19.84;63.84;100400.44;5062136;28;46608;-65
2021/07/12 06:56:15;;;;;;;;;7.25;7.25;;;;;19.84;63.92;100411.91;5067361;27;45628;-65
2021/07/12 06:58:42;;;;;;;;;9.00;8.50;;;;;19.86;64.33;100431.25;5073897;27;45331;-65
2021/07/12 07:01:07;;;;;;;;;11.25;9.50;;;;;19.86;64.00;100441.88;5073312;28;45467;-65
2021/07/12 07:03:33;;;;;;;;;8.75;8.75;;;;;19.88;64.25;100444.47;5064275;27;46239;-64
2021/07/12 07:06:03;;;;;;;;;12.25;9.00;;;;;19.91;64.53;100447.75;5069379;28;45558;-64
2021/07/12 07:08:28;;;;;;;;;11.00;10.00;;;;;19.96;64.55;100447.47;5072274;27;45493;-63
2021/07/12 07:10:54;;;;;;;;;9.50;8.50;;;;;20.02;64.88;100452.41;5072197;27;45390;-64
2021/07/12 07:13:19;;;;;;;;;9.00;8.00;;;;;20.10;64.02;100446.59;5064815;28;46106;-64
2021/07/12 07:15:44;;;;;;;;;7.25;7.00;;;;;20.11;63.94;100457.09;5072145;28;45440;-66
2021/07/12 07:18:10;;;;;;;;;10.75;10.25;;;;;20.15;64.41;100442.66;5073521;28;45465;-64
2021/07/12 07:20:36;;;;;;;;;9.75;9.75;;;;;20.18;64.37;100441.59;5073007;28;45466;-64
2021/07/12 07:23:03;;;;;;;;;10.50;9.50;;;;;20.25;64.56;100450.03;5066993;27;45570;-64
2021/07/12 07:25:28;;;;;;;;;10.00;8.75;;;;;20.33;64.26;100445.06;5061508;28;45403;-65
2021/07/12 07:27:53;;;;;;;;;12.00;11.25;;;;;20.37;64.27;100442.09;5073061;27;45640;-65
2021/07/12 07:30:19;;;;;;;;;14.25;11.25;;;;;20.40;64.43;100457.00;5072777;27;45497;-65
2021/07/12 07:32:45;;;;;;;;;11.75;11.75;;;;;20.39;63.99;100447.34;5071752;28;46459;-65
2021/07/12 07:35:11;;;;;;;;;12.50;9.75;;;;;20.36;64.57;100461.69;5072901;28;45478;-64
2021/07/12 07:37:37;;;;;;;;;10.75;9.00;;;;;20.32;64.49;100448.69;5072608;28;45498;-65
2021/07/12 07:40:06;;;;;;;;;10.50;9.50;;;;;20.32;64.61;100438.91;5073003;27;45737;-65
2021/07/12 07:42:31;;;;;;;;;8.75;8.75;;;;;20.35;64.72;100435.19;5062942;28;47237;-64
2021/07/12 07:44:59;;;;;;;;;8.25;8.25;;;;;20.35;64.29;100443.16;5064598;28;45469;-65
2021/07/12 07:47:24;;;;;;;;;10.50;10.50;;;;;20.34;64.55;100450.28;5072896;27;45422;-64
2021/07/12 07:49:50;;;;;;;;;7.00;6.00;;;;;20.33;64.84;100447.72;5072496;28;45370;-63
2021/07/12 07:52:15;;;;;;;;;11.50;10.25;;;;;20.37;64.90;100428.81;5073293;27;45423;-63
2021/07/12 07:54:41;;;;;;;;;11.00;10.00;;;;;20.42;64.88;100423.19;5071961;28;45929;-63
2021/07/12 07:57:06;;;;;;;;;11.75;11.75;;;;;20.42;64.76;100443.63;5072681;27;45437;-64
2021/07/12 07:59:32;;;;;;;;;12.75;9.75;;;;;20.42;65.00;100444.47;5072496;28;45494;-64
2021/07/12 08:01:57;;;;;;;;;12.50;11.25;;;;;20.43;65.28;100435.56;5072604;27;45442;-64
2021/07/12 08:04:22;;;;;;;;;9.25;8.75;;;;;20.43;65.34;100434.69;5072731;27;45430;-64
2021/07/12 08:06:48;;;;;;;;;13.00;12.00;;;;;20.48;64.76;100424.59;5072410;27;45552;-64
2021/07/12 08:09:13;;;;;;;;;10.00;10.00;;;;;20.61;65.08;100414.88;5071531;27;45398;-64
2021/07/12 08:11:40;;;;;;;;;9.75;9.25;;;;;20.74;64.85;100420.22;5071889;27;45413;-64
2021/07/12 08:14:06;;;;;;;;;9.00;8.25;;;;;20.85;64.45;100435.44;5073095;28;45471;-64
2021/07/12 08:16:31;;;;;;;;;10.25;10.25;;;;;20.92;64.14;100426.94;5072743;28;45462;-64
2021/07/12 08:18:56;;;;;;;;;12.25;10.50;;;;;21.02;64.08;100421.84;5072841;27;45373;-64
2021/07/12 08:21:22;;;;;;;;;12.00;11.00;;;;;21.11;64.10;100418.53;5071484;27;46472;-64
2021/07/12 08:23:47;;;;;;;;;9.75;8.75;;;;;21.24;63.72;100425.66;5071708;27;45401;-64
2021/07/12 08:26:13;;;;;;;;;9.50;8.50;;;;;21.29;63.40;100432.41;5072375;27;45701;-64
2021/07/12 08:28:40;;;;;;;;;10.25;9.25;;;;;21.29;63.47;100445.72;5071733;28;45298;-64
2021/07/12 08:31:06;;;;;;;;;9.00;8.00;;;;;21.19;62.88;100448.16;5072485;27;46469;-65
2021/07/12 08:33:32;;;;;;;;;10.25;9.50;;;;;21.10;62.95;100450.59;5071947;27;45287;-63
2021/07/12 08:35:57;;;;;;;;;8.75;7.75;;;;;21.03;62.99;100465.28;5073857;27;45291;-66
2021/07/12 08:38:23;;;;;;;;;11.00;10.00;;;;;20.89;63.43;100464.41;5070192;28;45538;-66
2021/07/12 08:40:49;;;;;;;;;9.25;9.00;;;;;20.73;63.73;100475.22;5073842;28;46193;-64
2021/07/12 08:43:16;;;;;;;;;6.00;6.00;;;;;20.60;63.92;100482.31;5075792;27;45326;-64
2021/07/12 08:45:41;;;;;;;;;10.25;10.25;;;;;20.52;64.44;100482.81;5075243;27;45319;-64
2021/07/12 08:48:07;;;;;;;;;9.50;8.75;;;;;20.53;64.38;100479.19;5075205;27;45668;-65
2021/07/12 08:50:33;;;;;;;;;9.50;9.50;;;;;20.56;64.61;100470.19;5074769;27;46044;-64
2021/07/12 08:52:58;;;;;;;;;14.50;12.25;;;;;20.61;64.74;100486.69;5075671;28;45572;-64
2021/07/12 08:55:24;;;;;;;;;13.00;11.50;;;;;20.65;64.96;100482.03;5075163;28;45329;-64
2021/07/12 08:58:02;;;;;;;;;7.67;7.67;;;;;20.68;64.44;100484.47;5075541;28;45346;-64
2021/07/12 09:00:53;;;;;;;;;12.25;11.50;;;;;20.70;64.55;100480.75;5074783;28;46189;-64
2021/07/12 09:03:25;;;;;;;;;17.50;14.75;;;;;20.78;65.31;100477.56;5074317;27;45401;-65
2021/07/12 09:05:57;;;;;;;;;9.00;9.00;;;;;20.87;64.18;100478.78;5075253;27;45837;-65
2021/07/12 09:08:34;;;;;;;;;9.50;9.00;;;;;20.97;63.91;100478.06;5074785;27;45351;-66
2021/07/12 09:11:30;;;;;;;;;11.25;9.25;;;;;21.07;63.76;100478.28;5059270;28;47394;-66
2021/07/12 09:13:59;;;;;;;;;8.00;7.75;;;;;21.16;63.92;100477.63;5073743;28;45377;-66
2021/07/12 09:16:29;;;;;;;;;4.00;4.00;;;;;21.25;63.69;100467.31;5070741;28;45339;-65
2021/07/12 09:19:23;;;;;;;;;8.75;8.50;;;;;21.21;63.73;100474.66;5073492;28;45448;-65
2021/07/12 09:21:54;;;;;;;;;9.75;9.75;;;;;21.21;63.56;100479.97;5074555;28;45420;-65
2021/07/12 09:24:25;;;;;;;;;9.25;9.00;;;;;21.23;63.55;100477.22;5073054;28;45413;-66
2021/07/12 09:27:04;;;;;;;;;13.25;10.75;;;;;21.29;63.66;100485.66;5074559;28;45439;-65
2021/07/12 09:29:33;;;;;;;;;8.00;8.00;;;;;21.46;63.46;100479.16;5075604;27;45423;-65
2021/07/12 09:31:59;;;;;;;;;7.50;7.50;;;;;21.56;62.98;100490.03;5059699;28;46856;-65
2021/07/12 09:34:26;;;;;;;;;13.50;10.00;;;;;21.61;62.96;100499.38;5054983;28;45460;-66
2021/07/12 09:36:53;;;;;;;;;7.00;7.00;;;;;21.71;62.46;100493.41;5074110;28;45584;-65
2021/07/12 09:39:32;;;;;;;;;9.00;8.00;;;;;21.80;62.40;100490.94;5074763;27;45320;-64
2021/07/12 09:42:28;;;;;;;;;7.00;6.00;;;;;21.83;61.68;100490.75;5074155;28;46271;-65
2021/07/12 09:44:53;;;;;;;;;11.75;9.50;;;;;21.93;61.97;100496.28;5070631;28;45616;-65
2021/07/12 09:47:21;;;;;;;;;11.25;11.25;;;;;21.96;62.38;100504.03;5074552;27;45465;-65
2021/07/12 09:49:47;;;;;;;;;13.25;11.75;;;;;21.99;62.05;100505.63;5074123;28;45294;-65
2021/07/12 09:52:20;;;;;;;;;9.75;7.00;;;;;22.01;61.81;100512.56;5075256;27;46844;-66
2021/07/12 09:54:47;;;;;;;;;13.00;9.00;;;;;21.93;61.62;100506.06;5074288;27;46028;-64
2021/07/12 09:57:15;;;;;;;;;11.50;9.00;;;;;21.80;61.78;100528.25;5074222;27;45534;-66
2021/07/12 10:00:00;;;;;;;;;8.33;6.00;;;;;21.57;65.58;100545.88;5074364;28;45343;-66
2021/07/12 10:02:28;;;;;;;;;7.25;7.25;;;;;21.27;68.88;100510.66;5074503;27;46321;-66
2021/07/12 10:05:03;;;;;;;;;7.00;6.33;;;;;21.07;65.07;100520.88;5073912;28;45498;-65
2021/07/12 10:07:29;;;;;;;;;7.00;7.00;;;;;20.89;64.50;100525.59;5071092;28;45316;-66
2021/07/12 10:09:56;;;;;;;;;6.25;6.25;;;;;20.82;64.49;100518.13;5074330;28;45630;-65
2021/07/12 10:12:22;;;;;;;;;10.25;9.50;;;;;20.82;64.87;100526.13;5073951;28;45488;-65
2021/07/12 10:14:47;;;;;;;;;14.50;11.00;;;;;20.87;65.12;100508.88;5073695;27;45387;-66
2021/07/12 10:17:13;;;;;;;;;12.75;11.50;;;;;20.99;65.73;100523.19;5073536;27;45358;-65
2021/07/12 10:19:40;;;;;;;;;12.50;9.50;;;;;20.97;65.29;100525.97;5073978;28;45352;-66
2021/07/12 10:22:06;;;;;;;;;8.25;8.25;;;;;20.91;65.35;100512.22;5073876;27;45435;-66
2021/07/12 10:24:37;;;;;;;;;8.00;7.00;;;;;20.96;65.00;100510.09;5073006;27;45373;-65
2021/07/12 10:27:05;;;;;;;;;10.50;10.50;;;;;21.10;64.90;100507.34;5073637;27;45325;-65
2021/07/12 10:29:36;;;;;;;;;8.00;6.75;;;;;21.28;64.52;100509.69;5073831;27;45513;-66
2021/07/12 10:32:22;;;;;;;;;10.25;7.50;;;;;21.48;63.91;100511.88;5057122;28;46591;-64
2021/07/12 10:34:56;;;;;;;;;9.00;8.00;;;;;21.66;63.23;100507.06;5073600;28;45408;-64
2021/07/12 10:37:27;;;;;;;;;8.00;7.00;;;;;21.81;62.63;100510.47;5073958;27;45401;-64
2021/07/12 10:40:05;;;;;;;;;9.50;8.50;;;;;21.98;62.36;100491.47;5073273;27;45319;-65
2021/07/12 10:42:53;;;;;;;;;8.25;8.25;;;;;22.14;61.92;100509.84;5072945;27;46653;-65
2021/07/12 10:45:27;;;;;;;;;8.50;8.50;;;;;22.22;61.56;100507.53;5072306;27;45597;-65
2021/07/12 10:47:59;;;;;;;;;11.00;11.00;;;;;22.53;61.74;100494.59;5072679;28;45371;-65
2021/07/12 10:50:43;;;;;;;;;10.00;10.00;;;;;22.90;60.44;100503.34;5070665;28;45469;-65
2021/07/12 10:53:14;;;;;;;;;12.75;10.75;;;;;23.24;59.97;100492.81;5073332;27;45607;-65
2021/07/12 10:55:42;;;;;;;;;9.00;9.00;;;;;23.58;58.86;100490.19;5073605;27;45426;-65
2021/07/12 10:58:19;;;;;;;;;18.50;14.00;;;;;23.96;58.71;100475.63;5072399;27;45299;-65
2021/07/12 11:00:49;;;;;;;;;11.33;9.33;;;;;24.36;57.58;100477.72;5071786;28;45543;-65
2021/07/12 11:03:36;;;;;;;;;13.00;12.25;;;;;24.57;56.71;100473.31;5063926;28;47537;-66
2021/07/12 11:06:04;;;;;;;;;11.25;11.25;;;;;24.86;56.29;100466.47;5072207;28;45749;-65
2021/07/12 11:08:49;;;;;;;;;10.50;10.50;;;;;25.21;55.59;100461.66;5072502;27;45497;-66
2021/07/12 11:11:23;;;;;;;;;11.25;10.75;;;;;25.62;54.54;100470.63;5059343;28;45328;-66
2021/07/12 11:14:05;;;;;;;;;12.75;9.75;;;;;25.87;53.67;100468.47;5072225;28;46013;-65
2021/07/12 11:16:45;;;;;;;;;11.50;10.50;;;;;26.36;53.51;100473.94;5068314;28;45336;-65
2021/07/12 11:19:27;;;;;;;;;11.00;11.00;;;;;26.85;51.58;100461.41;5073033;27;45445;-66
2021/07/12 11:21:53;;;;;;;;;10.00;10.00;;;;;27.38;51.02;100462.72;5072318;27;45399;-66
2021/07/12 11:24:22;;;;;;;;;14.75;12.75;;;;;27.85;49.61;100457.31;5072459;27;45688;-66
2021/07/12 11:27:05;;;;;;;;;13.33;10.00;;;;;28.06;49.11;100457.91;5073155;27;45476;-65
2021/07/12 11:29:33;;;;;;;;;10.00;10.00;;;;;28.10;48.40;100458.44;5072480;28;45400;-63